createdAt,value
2022-08-11T00:02:00.691Z,19.50
2022-08-11T00:04:36.117Z,19.50
2022-08-11T00:07:05.072Z,19.60
2022-08-11T00:09:39.165Z,19.60
2022-08-11T00:12:14.892Z,19.60
2022-08-11T00:14:43.386Z,19.60
2022-08-11T00:17:14.040Z,19.70
2022-08-11T00:20:12.077Z,19.60
2022-08-11T00:22:34.533Z,19.70
2022-08-11T00:25:10.161Z,19.70
2022-08-11T00:27:40.413Z,19.70
2022-08-11T00:30:12.477Z,19.80
2022-08-11T00:32:42.218Z,19.80
2022-08-11T00:35:56.228Z,19.80
2022-08-11T00:38:04.143Z,19.70
2022-08-11T00:40:42.777Z,19.80
2022-08-11T00:43:28.058Z,19.70
2022-08-11T00:46:06.856Z,19.70
2022-08-11T00:48:48.825Z,19.70
2022-08-11T00:52:05.175Z,19.70
2022-08-11T00:54:40.859Z,19.70
2022-08-11T00:57:37.375Z,19.60
2022-08-11T01:00:12.728Z,19.50
2022-08-11T01:02:59.686Z,19.50
2022-08-11T01:05:45.219Z,19.40
2022-08-11T01:08:33.906Z,19.40
2022-08-11T01:11:32.238Z,19.30
2022-08-11T01:14:33.895Z,19.30
2022-08-11T01:17:10.810Z,19.20
2022-08-11T01:20:45.324Z,19.10
2022-08-11T01:23:21.317Z,19.10
2022-08-11T01:26:20.700Z,19.00
2022-08-11T01:29:11.476Z,19.00
2022-08-11T01:32:13.495Z,18.90
2022-08-11T01:35:15.381Z,18.90
2022-08-11T01:38:01.946Z,18.90
2022-08-11T01:40:28.642Z,18.90
2022-08-11T01:43:15.934Z,18.80
2022-08-11T01:46:03.407Z,18.80
2022-08-11T01:48:49.892Z,18.70
2022-08-11T01:51:24.233Z,18.60
2022-08-11T01:53:59.899Z,18.60
2022-08-11T01:56:49.616Z,18.60
2022-08-11T01:59:19.213Z,18.40
2022-08-11T02:02:21.267Z,18.30
2022-08-11T02:05:14.617Z,18.20
2022-08-11T02:08:01.836Z,18.20
2022-08-11T02:11:23.051Z,18.20
2022-08-11T02:13:56.318Z,18.20
2022-08-11T02:16:23.248Z,18.30
2022-08-11T02:19:19.592Z,18.30
2022-08-11T02:22:13.484Z,18.30
2022-08-11T02:25:01.939Z,18.30
2022-08-11T02:27:41.554Z,18.30
2022-08-11T02:30:14.132Z,18.30
2022-08-11T02:33:18.148Z,18.30
2022-08-11T02:36:08.413Z,18.30
2022-08-11T02:38:49.625Z,18.30
2022-08-11T02:41:41.964Z,18.30
2022-08-11T02:44:14.562Z,18.30
2022-08-11T02:46:50.167Z,18.30
2022-08-11T02:50:06.140Z,18.30
2022-08-11T02:53:22.780Z,18.40
2022-08-11T02:56:09.246Z,18.40
2022-08-11T02:59:11.463Z,18.40
2022-08-11T03:01:53.194Z,18.50
2022-08-11T03:04:59.193Z,18.50
2022-08-11T03:07:29.909Z,18.60
2022-08-11T03:10:21.713Z,18.60
2022-08-11T03:13:48.780Z,18.50
2022-08-11T03:16:45.526Z,18.60
2022-08-11T03:19:25.295Z,18.60
2022-08-11T03:22:08.394Z,18.60
2022-08-11T03:25:12.767Z,18.70
2022-08-11T03:27:57.888Z,18.70
2022-08-11T03:30:40.313Z,18.70
2022-08-11T03:33:47.488Z,18.60
2022-08-11T03:36:57.601Z,18.70
2022-08-11T03:39:55.486Z,18.70
2022-08-11T03:42:32.556Z,18.60
2022-08-11T03:45:26.372Z,18.50
2022-08-11T03:48:10.502Z,18.30
2022-08-11T03:50:56.116Z,18.20
2022-08-11T03:53:54.255Z,18.10
2022-08-11T03:56:42.591Z,18.00
2022-08-11T03:59:39.973Z,18.00
2022-08-11T04:02:45.398Z,18.00
2022-08-11T04:05:36.506Z,17.90
2022-08-11T04:08:42.062Z,17.90
2022-08-11T04:11:42.668Z,17.90
2022-08-11T04:14:50.660Z,17.80
2022-08-11T04:17:41.066Z,17.80
2022-08-11T04:20:26.694Z,17.70
2022-08-11T04:23:03.350Z,17.60
2022-08-11T04:25:57.982Z,17.60
2022-08-11T04:28:59.886Z,17.50
2022-08-11T04:31:51.931Z,17.50
2022-08-11T04:34:54.007Z,17.50
2022-08-11T04:37:42.474Z,17.60
2022-08-11T04:40:27.907Z,17.60
2022-08-11T04:43:28.982Z,17.60
2022-08-11T04:46:10.418Z,17.60
2022-08-11T04:49:25.819Z,17.60
2022-08-11T04:52:47.075Z,17.60
2022-08-11T04:56:10.314Z,17.60
2022-08-11T04:59:30.257Z,17.70
2022-08-11T05:02:17.845Z,17.70
2022-08-11T05:05:32.661Z,17.70
2022-08-11T05:08:24.670Z,17.80
2022-08-11T05:11:29.234Z,17.70
2022-08-11T05:14:43.526Z,17.80
2022-08-11T05:17:33.100Z,17.90
2022-08-11T05:20:18.991Z,17.90
2022-08-11T05:23:09.669Z,18.00
2022-08-11T05:26:47.501Z,18.10
2022-08-11T05:29:24.340Z,18.10
2022-08-11T05:32:17.513Z,18.00
2022-08-11T05:34:54.433Z,18.00
2022-08-11T05:37:30.170Z,18.00
2022-08-11T05:40:29.874Z,18.10
2022-08-11T05:43:25.810Z,18.20
2022-08-11T05:46:22.560Z,18.40
2022-08-11T05:49:08.741Z,18.70
2022-08-11T05:52:05.068Z,18.90
2022-08-11T05:55:06.049Z,19.10
2022-08-11T05:57:38.520Z,19.40
2022-08-11T06:00:19.545Z,19.50
2022-08-11T06:02:50.281Z,19.70
2022-08-11T06:05:19.639Z,19.90
2022-08-11T06:07:50.172Z,20.10
2022-08-11T06:10:46.701Z,20.20
2022-08-11T06:13:17.896Z,20.30
2022-08-11T06:15:50.739Z,20.30
2022-08-11T06:18:18.308Z,20.30
2022-08-11T06:20:50.880Z,20.40
2022-08-11T06:23:20.434Z,20.40
2022-08-11T06:25:48.431Z,20.40
2022-08-11T06:28:20.531Z,20.40
2022-08-11T06:30:48.982Z,20.50
2022-08-11T06:33:17.291Z,20.60
2022-08-11T06:36:02.975Z,20.70
2022-08-11T06:38:51.379Z,20.70
2022-08-11T06:41:32.109Z,20.80
2022-08-11T06:44:14.417Z,20.70
2022-08-11T06:46:48.133Z,20.70
2022-08-11T06:49:36.593Z,20.70
2022-08-11T06:52:35.064Z,20.60
2022-08-11T06:55:06.497Z,20.70
2022-08-11T06:57:56.738Z,20.80
2022-08-11T07:00:33.308Z,20.90
2022-08-11T07:03:10.507Z,20.90
2022-08-11T07:06:09.508Z,21.00
2022-08-11T07:09:19.336Z,21.00
2022-08-11T07:12:12.072Z,21.10
2022-08-11T07:15:05.897Z,21.10
2022-08-11T07:17:49.256Z,21.20
2022-08-11T07:20:36.436Z,21.30
2022-08-11T07:23:26.054Z,21.30
2022-08-11T07:26:15.406Z,21.20
2022-08-11T07:29:00.807Z,21.20
2022-08-11T07:31:40.697Z,21.20
2022-08-11T07:34:22.448Z,21.20
2022-08-11T07:36:55.361Z,21.20
2022-08-11T07:39:27.216Z,21.30
2022-08-11T07:41:57.285Z,21.40
2022-08-11T07:44:34.447Z,21.40
2022-08-11T07:47:21.256Z,21.50
2022-08-11T07:50:08.957Z,21.60
2022-08-11T07:52:38.426Z,21.60
2022-08-11T07:55:13.934Z,21.70
2022-08-11T07:58:15.370Z,21.80
2022-08-11T08:01:22.350Z,21.90
2022-08-11T08:04:09.283Z,21.90
2022-08-11T08:06:55.882Z,21.90
2022-08-11T08:09:43.008Z,22.00
2022-08-11T08:12:28.673Z,22.10
2022-08-11T08:15:15.625Z,22.20
2022-08-11T08:18:09.952Z,22.20
2022-08-11T08:20:46.013Z,22.30
2022-08-11T08:23:13.781Z,22.50
2022-08-11T08:25:43.318Z,22.70
2022-08-11T08:28:20.859Z,22.70
2022-08-11T08:30:56.195Z,22.80
2022-08-11T08:33:29.110Z,22.90
2022-08-11T08:36:12.111Z,23.10
2022-08-11T08:38:51.277Z,23.20
2022-08-11T08:41:22.990Z,23.30
2022-08-11T08:43:55.815Z,23.40
2022-08-11T08:46:30.714Z,23.40
2022-08-11T08:49:01.826Z,23.50
2022-08-11T08:51:58.637Z,23.60
2022-08-11T08:54:34.139Z,23.70
2022-08-11T08:57:04.906Z,24.60
2022-08-11T08:59:47.909Z,23.80
2022-08-11T09:02:34.527Z,23.90
2022-08-11T09:05:04.114Z,24.00
2022-08-11T09:07:38.675Z,24.10
2022-08-11T09:10:09.417Z,24.30
2022-08-11T09:12:39.206Z,24.30
2022-08-11T09:15:09.191Z,24.40
2022-08-11T09:17:41.921Z,24.40
2022-08-11T09:20:14.802Z,24.40
2022-08-11T09:26:15.655Z,24.60
2022-08-11T09:28:44.246Z,24.70
2022-08-11T09:31:13.503Z,24.80
2022-08-11T09:33:42.844Z,24.90
2022-08-11T09:36:30.956Z,24.90
2022-08-11T09:39:18.568Z,25.00
2022-08-11T09:42:00.296Z,25.20
2022-08-11T09:44:50.492Z,25.40
2022-08-11T09:47:19.787Z,25.50
2022-08-11T09:49:49.054Z,25.50
2022-08-11T09:52:18.455Z,25.70
2022-08-11T09:54:48.590Z,25.80
2022-08-11T09:57:38.188Z,25.90
2022-08-11T10:00:12.423Z,26.00
2022-08-11T10:02:48.781Z,26.10
2022-08-11T10:05:38.022Z,26.20
2022-08-11T10:08:07.314Z,26.30
2022-08-11T10:10:39.673Z,26.50
2022-08-11T10:14:32.252Z,26.60
2022-08-11T10:16:15.825Z,26.70
2022-08-11T10:18:52.576Z,26.90
2022-08-11T10:21:34.608Z,26.90
2022-08-11T10:24:21.392Z,27.00
2022-08-11T10:27:00.055Z,27.20
2022-08-11T10:30:00.166Z,27.30
2022-08-11T10:32:58.427Z,27.40
2022-08-11T10:35:32.569Z,27.60
2022-08-11T10:38:07.517Z,27.80
2022-08-11T10:40:39.697Z,27.90
2022-08-11T10:43:14.059Z,27.90
2022-08-11T10:46:05.300Z,28.00
2022-08-11T10:48:38.957Z,28.20
2022-08-11T10:51:14.134Z,28.40
2022-08-11T10:54:12.448Z,28.50
2022-08-11T10:56:59.351Z,28.50
2022-08-11T10:59:28.502Z,28.60
2022-08-11T11:01:56.152Z,28.60
2022-08-11T11:04:58.646Z,28.70
2022-08-11T11:08:00.608Z,28.90
2022-08-11T11:10:27.597Z,29.00
2022-08-11T11:13:16.533Z,29.00
2022-08-11T11:16:05.429Z,29.10
2022-08-11T11:18:36.653Z,29.30
2022-08-11T11:21:08.436Z,29.50
2022-08-11T11:23:41.606Z,29.60
2022-08-11T11:26:27.158Z,29.80
2022-08-11T11:29:16.023Z,29.90
2022-08-11T11:31:58.583Z,30.00
2022-08-11T11:34:58.271Z,30.10
2022-08-11T11:37:26.021Z,30.20
2022-08-11T11:39:55.144Z,30.20
2022-08-11T11:42:22.941Z,30.20
2022-08-11T11:44:54.113Z,30.30
2022-08-11T11:47:23.666Z,30.30
2022-08-11T11:49:50.916Z,30.40
2022-08-11T11:52:21.116Z,30.50
2022-08-11T11:54:50.522Z,30.60
2022-08-11T11:57:38.541Z,30.70
2022-08-11T12:00:33.608Z,31.00
2022-08-11T12:03:05.512Z,31.10
2022-08-11T12:05:34.691Z,31.10
2022-08-11T12:08:21.604Z,31.30
2022-08-11T12:11:36.390Z,31.30
2022-08-11T12:14:10.584Z,31.40
2022-08-11T12:16:41.311Z,31.70
2022-08-11T12:19:12.974Z,32.20
2022-08-11T12:22:01.405Z,32.70
2022-08-11T12:24:48.988Z,33.20
2022-08-11T12:27:24.831Z,33.60
2022-08-11T12:29:56.141Z,33.60
2022-08-11T12:32:25.920Z,33.40
2022-08-11T12:34:53.723Z,33.10
2022-08-11T12:37:37.832Z,33.10
2022-08-11T12:40:42.494Z,32.80
2022-08-11T12:43:39.681Z,32.90
2022-08-11T12:46:29.580Z,34.90
2022-08-11T12:49:22.787Z,36.90
2022-08-11T12:52:14.877Z,38.90
2022-08-11T12:54:52.572Z,39.30
2022-08-11T12:57:57.198Z,39.60
2022-08-11T13:00:44.280Z,40.80
2022-08-11T13:03:32.231Z,42.30
2022-08-11T13:06:02.735Z,43.40
2022-08-11T13:08:35.591Z,44.80
2022-08-11T13:11:22.315Z,45.40
2022-08-11T13:13:57.127Z,45.60
2022-08-11T13:16:56.702Z,45.00
2022-08-11T13:19:24.242Z,45.70
2022-08-11T13:21:53.061Z,45.80
2022-08-11T13:24:22.700Z,46.00
2022-08-11T13:26:51.571Z,46.30
2022-08-11T13:29:20.655Z,46.40
2022-08-11T13:31:48.611Z,46.90
2022-08-11T13:34:17.592Z,47.50
2022-08-11T13:36:45.358Z,48.00
2022-08-11T13:39:13.606Z,47.50
2022-08-11T13:41:45.061Z,46.40
2022-08-11T13:44:15.939Z,45.30
2022-08-11T13:46:46.163Z,45.00
2022-08-11T13:49:17.238Z,44.70
2022-08-11T13:51:44.750Z,44.00
2022-08-11T13:54:18.977Z,44.40
2022-08-11T13:56:49.676Z,44.80
2022-08-11T13:59:30.955Z,44.80
2022-08-11T14:02:28.315Z,45.30
2022-08-11T14:05:17.648Z,45.30
2022-08-11T14:08:00.425Z,45.80
2022-08-11T14:10:30.222Z,47.00
2022-08-11T14:13:41.145Z,47.90
2022-08-11T14:16:18.604Z,48.40
2022-08-11T14:18:47.890Z,48.60
2022-08-11T14:21:37.316Z,48.70
2022-08-11T14:24:04.831Z,49.00
2022-08-11T14:26:38.751Z,48.70
2022-08-11T14:29:16.181Z,48.70
2022-08-11T14:31:55.381Z,48.70
2022-08-11T14:34:25.101Z,48.50
2022-08-11T14:36:54.261Z,48.30
2022-08-11T14:39:29.204Z,48.70
2022-08-11T14:42:20.941Z,48.40
2022-08-11T14:45:19.778Z,48.00
2022-08-11T14:47:52.740Z,48.00
2022-08-11T14:50:23.278Z,47.70
2022-08-11T14:52:55.153Z,46.80
2022-08-11T14:55:43.653Z,46.50
2022-08-11T14:58:13.033Z,45.00
2022-08-11T15:00:41.891Z,43.00
2022-08-11T15:03:12.631Z,41.60
2022-08-11T15:05:53.727Z,40.60
2022-08-11T15:08:52.046Z,40.10
2022-08-11T15:11:40.297Z,41.00
2022-08-11T15:14:08.882Z,42.50
2022-08-11T15:17:00.900Z,43.20
2022-08-11T15:19:30.104Z,44.30
2022-08-11T15:22:28.591Z,44.80
2022-08-11T15:24:58.734Z,44.70
2022-08-11T15:27:46.540Z,43.90
2022-08-11T15:30:33.716Z,43.90
2022-08-11T15:33:25.818Z,44.00
2022-08-11T15:36:12.810Z,43.50
2022-08-11T15:38:47.505Z,42.80
2022-08-11T15:41:35.882Z,42.40
2022-08-11T15:44:44.686Z,42.10
2022-08-11T15:47:14.254Z,42.70
2022-08-11T15:50:12.476Z,43.30
2022-08-11T15:52:34.554Z,43.70
2022-08-11T15:55:08.879Z,44.10
2022-08-11T15:57:56.222Z,44.00
2022-08-11T16:00:42.536Z,43.60
2022-08-11T16:04:06.175Z,44.30
2022-08-11T16:06:16.973Z,44.30
2022-08-11T16:08:45.661Z,43.90
2022-08-11T16:11:13.862Z,43.90
2022-08-11T16:13:41.565Z,43.80
2022-08-11T16:16:16.044Z,43.50
2022-08-11T16:18:51.900Z,43.70
2022-08-11T16:21:35.126Z,43.40
2022-08-11T16:27:01.593Z,43.40
2022-08-11T16:27:09.352Z,43.40
2022-08-11T16:29:45.543Z,43.50
2022-08-11T16:32:16.883Z,43.40
2022-08-11T16:35:18.928Z,43.00
2022-08-11T16:38:05.535Z,42.60
2022-08-11T16:40:33.801Z,42.10
2022-08-11T16:43:21.993Z,41.90
2022-08-11T16:46:08.555Z,41.30
2022-08-11T16:48:38.883Z,39.80
2022-08-11T16:51:12.025Z,39.10
2022-08-11T16:53:50.124Z,38.80
2022-08-11T16:56:44.042Z,38.60
2022-08-11T16:59:20.694Z,38.50
2022-08-11T17:02:02.374Z,37.90
2022-08-11T17:05:05.417Z,37.80
2022-08-11T17:07:51.813Z,37.90
2022-08-11T17:10:53.257Z,37.50
2022-08-11T17:13:33.773Z,36.70
2022-08-11T17:16:09.222Z,36.00
2022-08-11T17:18:59.879Z,35.30
2022-08-11T17:22:04.825Z,34.30
2022-08-11T17:24:36.529Z,33.60
2022-08-11T17:27:07.515Z,32.80
2022-08-11T17:29:55.456Z,32.30
2022-08-11T17:32:55.863Z,31.70
2022-08-11T17:35:34.251Z,31.20
2022-08-11T17:38:10.104Z,30.70
2022-08-11T17:40:40.338Z,30.20
2022-08-11T17:43:28.009Z,29.80
2022-08-11T17:46:15.731Z,29.40
2022-08-11T17:48:47.975Z,29.20
2022-08-11T17:51:37.687Z,28.80
2022-08-11T17:54:26.039Z,28.50
2022-08-11T17:57:21.314Z,28.20
2022-08-11T17:59:53.959Z,28.00
2022-08-11T18:02:43.190Z,27.70
2022-08-11T18:05:13.465Z,27.50
2022-08-11T18:08:02.738Z,27.30
2022-08-11T18:10:51.220Z,27.10
2022-08-11T18:13:38.854Z,27.00
2022-08-11T18:16:24.473Z,26.80
2022-08-11T18:19:10.261Z,26.60
2022-08-11T18:22:10.961Z,26.40
2022-08-11T18:25:09.076Z,26.20
2022-08-11T18:27:56.656Z,25.90
2022-08-11T18:30:44.084Z,25.70
2022-08-11T18:33:56.738Z,25.40
2022-08-11T18:36:45.464Z,25.30
2022-08-11T18:39:33.425Z,25.10
2022-08-11T18:42:26.834Z,24.90
2022-08-11T18:45:20.264Z,24.80
2022-08-11T18:48:11.632Z,24.70
2022-08-11T18:51:30.666Z,24.50
2022-08-11T18:54:09.137Z,24.50
2022-08-11T18:56:55.101Z,24.30
2022-08-11T18:59:45.106Z,24.20
2022-08-11T19:02:32.576Z,24.20
2022-08-11T19:06:35.998Z,24.20
2022-08-11T19:08:42.046Z,24.20
2022-08-11T19:11:31.490Z,24.10
2022-08-11T19:14:19.131Z,24.10
2022-08-11T19:17:05.773Z,24.00
2022-08-11T19:19:53.576Z,23.90
2022-08-11T19:22:39.933Z,23.80
2022-08-11T19:25:26.975Z,23.80
2022-08-11T19:28:13.355Z,23.70
2022-08-11T19:31:00.212Z,23.60
2022-08-11T19:33:59.695Z,23.60
2022-08-11T19:36:53.795Z,23.50
2022-08-11T19:39:41.083Z,23.40
2022-08-11T19:42:28.101Z,23.40
2022-08-11T19:45:14.405Z,23.30
2022-08-11T19:48:30.186Z,23.30
2022-08-11T19:51:10.038Z,23.30
2022-08-11T19:53:56.638Z,23.20
2022-08-11T19:56:42.121Z,23.20
2022-08-11T19:59:28.485Z,23.20
2022-08-11T20:02:14.810Z,23.10
2022-08-11T20:05:01.132Z,23.10
2022-08-11T20:07:48.594Z,22.90
2022-08-11T20:10:37.827Z,22.80
2022-08-11T20:13:27.467Z,22.60
2022-08-11T20:16:14.863Z,22.50
2022-08-11T20:19:01.823Z,22.30
2022-08-11T20:21:47.667Z,22.30
2022-08-11T20:24:36.460Z,22.20
2022-08-11T20:27:25.383Z,22.10
2022-08-11T20:30:12.998Z,21.90
2022-08-11T20:33:00.333Z,21.80
2022-08-11T20:35:46.495Z,21.80
2022-08-11T20:38:34.611Z,21.90
2022-08-11T20:41:21.993Z,21.80
2022-08-11T20:44:09.727Z,21.80
2022-08-11T20:46:58.423Z,21.80
2022-08-11T20:49:53.782Z,21.80
2022-08-11T20:52:47.277Z,21.80
2022-08-11T20:55:46.440Z,21.80
2022-08-11T21:01:47.174Z,21.70
2022-08-11T21:04:38.177Z,21.70
2022-08-11T21:07:44.137Z,21.70
2022-08-11T21:10:47.025Z,21.60
2022-08-11T21:13:37.084Z,21.50
2022-08-11T21:16:26.849Z,21.50
2022-08-11T21:19:59.605Z,21.60
2022-08-11T21:22:30.884Z,21.60
2022-08-11T21:25:18.573Z,21.50
2022-08-11T21:28:07.254Z,21.50
2022-08-11T21:30:57.555Z,21.30
2022-08-11T21:33:49.456Z,21.30
2022-08-11T21:36:37.743Z,21.30
2022-08-11T21:39:25.414Z,21.30
2022-08-11T21:42:13.554Z,21.30
2022-08-11T21:45:01.106Z,21.20
2022-08-11T21:47:48.594Z,21.10
2022-08-11T21:50:34.463Z,21.00
2022-08-11T21:53:20.605Z,20.90
2022-08-11T21:56:08.194Z,20.80
2022-08-11T21:58:54.950Z,20.80
2022-08-11T22:01:41.127Z,20.80
2022-08-11T22:04:27.297Z,20.70
2022-08-11T22:07:13.834Z,20.70
2022-08-11T22:09:59.433Z,20.60
2022-08-11T22:12:45.654Z,20.60
2022-08-11T22:15:32.026Z,20.60
2022-08-11T22:18:20.736Z,20.50
2022-08-11T22:21:06.862Z,20.50
2022-08-11T22:23:57.951Z,20.30
2022-08-11T22:26:47.517Z,20.10
2022-08-11T22:29:49.949Z,20.00
2022-08-11T22:32:38.105Z,20.00
2022-08-11T22:35:28.428Z,20.00
2022-08-11T22:38:17.467Z,20.00
2022-08-11T22:41:03.301Z,20.00
2022-08-11T22:43:49.009Z,20.00
2022-08-11T22:46:37.361Z,20.00
2022-08-11T22:49:23.777Z,19.90
2022-08-11T22:52:09.829Z,19.90
2022-08-11T22:54:56.320Z,19.90
2022-08-11T22:58:00.847Z,19.70
2022-08-11T23:00:46.773Z,19.60
2022-08-11T23:03:36.940Z,19.60
2022-08-11T23:06:25.015Z,19.60
2022-08-11T23:09:12.220Z,19.60
2022-08-11T23:12:06.206Z,19.50
2022-08-11T23:14:54.998Z,19.40
2022-08-11T23:17:41.307Z,19.40
2022-08-11T23:20:44.666Z,19.30
2022-08-11T23:23:34.537Z,19.20
2022-08-11T23:26:21.066Z,19.10
2022-08-11T23:29:06.667Z,19.00
2022-08-11T23:31:55.116Z,19.00
2022-08-11T23:35:04.775Z,18.70
2022-08-11T23:37:51.006Z,18.50
2022-08-11T23:40:36.620Z,18.30
2022-08-11T23:43:22.151Z,18.20
2022-08-11T23:46:07.738Z,18.10
2022-08-11T23:48:56.138Z,18.00
2022-08-11T23:51:42.713Z,17.90
2022-08-11T23:54:36.436Z,17.90
2022-08-11T23:57:23.402Z,17.80
